Hlavní strana
METAR-TAF:

METAR-TAF

Letiště :

Letiště Skopje

Skopje, Makedonie

zeměpisná šířka: 41-58N, zeměpisná délka: 021-39E, výška: 238 m

Aktuální stav počasí

Zpráva byla vytvořena před 17 minutami, v 08:00 UTC
Bezvětří
Teplota 6°C
Vlhkost vzduchu 87%
Tlak 1015 hPa
Viditelnost 10 km a více
Polojasno ve výšce 2600 ft
Zataženo ve výšce 4300 ft
déšť

METAR: LWSK 110800Z 00000KT 9999 RA SCT026 OVC043 06/04 Q1015 NOSIG

Čas: 09:17 (08:17 UTC)

Předpověď počasí

Zpráva byla vytvořena před 2 hodinami a 47 minutami, v 05:30 UTC
Předpověď platná od 11 v 06 UTC do 12 v 06 UTC
vítr z různých směrů 2 kt
Viditelnost 10 km a více
Skoro jasno ve výšce 2000 ft
Oblačno až skoro zataženo ve výšce 4000 ft
Dočasný
od 11 v 06 UTC do 11 v 11 UTC
Severoseverozápadní vítr 8 kt
Polojasno ve výšce 2000 ft
Zataženo ve výšce 3500 ft
déšť

TAF: LWSK 110530Z 1106/1206 VRB02KT 9999 FEW020 BKN040 TEMPO 1106/1111 34008KT RA SCT020 OVC035

Stav a předpovědi počasí z více než 4 000 letišť (zprávy METAR a TAF).

Červené a žluté tečky na mapě představují dostupné meteorologické stanice.

Když kurzor umístíte na tečku, zobrazí se název stanice.

Pak kliknutím zobrazíte stav a předpověď počasí.

Chcete-li změnit mapu, kliknutím na zelené tlačítko se znaménkem +mapu přiblížíte, kliknutím na zelené tlačítko se znaménkem – mapu oddálíte a kliknutím na zelené šipky přejdete na sousední mapy.


METAR-TAF: